createdAt,value
2023-05-02T00:01:54.164Z,25.30
2023-05-02T00:05:04.403Z,27.10
2023-05-02T00:08:47.511Z,23.10
2023-05-02T00:12:19.152Z,26.30
2023-05-02T00:15:39.092Z,19.10
2023-05-02T00:19:10.556Z,26.20
2023-05-02T00:22:49.317Z,28.40
2023-05-02T00:26:28.640Z,23.40
2023-05-02T00:30:17.173Z,26.10
2023-05-02T00:33:54.724Z,17.00
2023-05-02T00:37:20.176Z,16.90
2023-05-02T00:40:57.731Z,15.10
2023-05-02T00:44:21.355Z,16.20
2023-05-02T00:47:59.897Z,16.70
2023-05-02T00:51:47.734Z,17.00
2023-05-02T00:55:08.476Z,13.90
2023-05-02T00:58:38.161Z,15.50
2023-05-02T01:02:02.900Z,16.60
2023-05-02T01:05:25.671Z,16.20
2023-05-02T01:09:10.885Z,15.80
2023-05-02T01:13:11.615Z,14.10
2023-05-02T01:16:45.320Z,14.90
2023-05-02T01:20:22.576Z,17.10
2023-05-02T01:24:02.558Z,15.80
2023-05-02T01:27:45.401Z,17.80
2023-05-02T01:30:58.120Z,18.40
2023-05-02T01:34:26.691Z,17.10
2023-05-02T01:37:28.657Z,15.90
2023-05-02T01:41:03.464Z,15.70
2023-05-02T01:44:42.216Z,16.70
2023-05-02T01:48:14.185Z,17.30
2023-05-02T01:51:55.824Z,18.00
2023-05-02T01:55:44.788Z,17.10
2023-05-02T01:59:22.071Z,21.50
2023-05-02T02:03:05.419Z,18.50
2023-05-02T02:06:36.338Z,20.00
2023-05-02T02:10:25.572Z,20.50
2023-05-02T02:14:00.648Z,19.50
2023-05-02T02:17:44.705Z,19.10
2023-05-02T02:21:05.300Z,16.40
2023-05-02T02:24:29.637Z,17.00
2023-05-02T02:28:18.130Z,16.00
2023-05-02T02:32:15.865Z,16.00
2023-05-02T02:35:51.772Z,17.50
2023-05-02T02:39:37.943Z,17.20
2023-05-02T02:43:15.642Z,17.60
2023-05-02T02:47:08.907Z,16.70
2023-05-02T02:50:37.800Z,17.20
2023-05-02T02:54:32.781Z,17.30
2023-05-02T02:58:25.619Z,16.60
2023-05-02T03:01:42.191Z,17.20
2023-05-02T03:05:12.012Z,16.00
2023-05-02T03:09:00.624Z,16.30
2023-05-02T03:12:34.381Z,16.30
2023-05-02T03:16:32.021Z,16.70
2023-05-02T03:20:21.198Z,16.50
2023-05-02T03:23:51.813Z,15.50
2023-05-02T03:27:40.782Z,14.70
2023-05-02T03:31:29.686Z,15.10
2023-05-02T03:35:08.958Z,14.60
2023-05-02T03:39:42.874Z,14.30
2023-05-02T03:43:39.541Z,15.20
2023-05-02T03:47:42.555Z,13.60
2023-05-02T03:52:17.164Z,13.40
2023-05-02T03:56:48.004Z,13.10
2023-05-02T04:01:17.722Z,13.10
2023-05-02T04:09:15.653Z,13.10
2023-05-02T04:13:04.897Z,13.00
2023-05-02T04:16:47.673Z,12.30
2023-05-02T04:20:29.600Z,12.60
2023-05-02T04:24:17.576Z,12.60
2023-05-02T04:28:06.824Z,13.00
2023-05-02T04:31:55.944Z,13.00
2023-05-02T04:35:38.053Z,14.90
2023-05-02T04:39:20.011Z,14.30
2023-05-02T04:42:58.861Z,12.90
2023-05-02T04:46:36.973Z,12.60
2023-05-02T04:50:26.470Z,12.70
2023-05-02T04:54:08.146Z,13.20
2023-05-02T04:57:45.577Z,12.30
2023-05-02T05:01:21.137Z,11.80
2023-05-02T05:05:10.805Z,12.00
2023-05-02T05:08:59.987Z,12.10
2023-05-02T05:12:49.409Z,11.80
2023-05-02T05:16:31.177Z,11.70
2023-05-02T05:20:05.843Z,12.50
2023-05-02T05:23:48.900Z,13.10
2023-05-02T05:27:26.072Z,12.30
2023-05-02T05:31:00.616Z,12.70
2023-05-02T05:34:31.006Z,13.10
2023-05-02T05:38:13.003Z,12.30
2023-05-02T05:42:02.052Z,11.70
2023-05-02T05:45:43.201Z,11.70
2023-05-02T05:49:26.259Z,12.80
2023-05-02T05:53:10.756Z,12.40
2023-05-02T05:56:42.034Z,12.00
2023-05-02T06:00:15.427Z,12.80
2023-05-02T06:04:11.936Z,11.60
2023-05-02T06:07:54.439Z,11.10
2023-05-02T06:11:48.085Z,11.40
2023-05-02T06:19:58.941Z,11.50
2023-05-02T06:37:38.707Z,10.90
2023-05-02T06:42:07.643Z,9.80
2023-05-02T06:46:41.985Z,10.70
2023-05-02T06:51:17.698Z,10.20
2023-05-02T06:55:10.158Z,10.20
2023-05-02T06:59:33.344Z,10.30
2023-05-02T07:03:19.136Z,9.70
2023-05-02T07:07:08.296Z,10.00
2023-05-02T07:10:59.225Z,9.10
2023-05-02T07:14:47.452Z,9.30
2023-05-02T07:18:37.366Z,8.70
2023-05-02T07:22:20.145Z,8.00
2023-05-02T07:26:13.907Z,7.70
2023-05-02T07:29:49.391Z,7.50
2023-05-02T07:33:39.063Z,7.30
2023-05-02T07:37:29.661Z,7.20
2023-05-02T07:41:17.917Z,7.00
2023-05-02T07:45:03.339Z,7.40
2023-05-02T07:49:31.018Z,7.30
2023-05-02T07:54:01.683Z,6.50
2023-05-02T07:58:31.784Z,6.80
2023-05-02T08:03:04.179Z,6.80
2023-05-02T08:07:36.215Z,6.70
2023-05-02T08:12:06.220Z,6.50
2023-05-02T08:16:37.552Z,6.60
2023-05-02T08:21:07.544Z,6.40
2023-05-02T08:25:39.911Z,6.90
2023-05-02T08:29:40.398Z,6.70
2023-05-02T08:33:44.908Z,6.60
2023-05-02T08:37:08.339Z,6.90
2023-05-02T08:40:58.379Z,8.10
2023-05-02T08:48:27.343Z,8.30
2023-05-02T08:52:16.653Z,9.00
2023-05-02T08:56:00.031Z,9.80
2023-05-02T08:59:44.303Z,9.00
2023-05-02T09:03:44.681Z,10.00
2023-05-02T09:07:26.874Z,9.70
2023-05-02T09:11:10.866Z,9.60
2023-05-02T09:14:59.238Z,9.50
2023-05-02T09:22:51.249Z,10.10
2023-05-02T09:26:39.002Z,10.60
2023-05-02T09:30:20.018Z,10.60
2023-05-02T09:34:03.208Z,11.10
2023-05-02T09:37:52.960Z,10.70
2023-05-02T09:41:54.426Z,11.00
2023-05-02T09:49:40.969Z,10.00
2023-05-02T09:53:47.097Z,9.50
2023-05-02T10:01:55.458Z,9.10
2023-05-02T10:05:34.057Z,8.80
2023-05-02T10:09:36.021Z,8.60
2023-05-02T10:13:03.832Z,8.00
2023-05-02T10:17:05.167Z,7.40
2023-05-02T10:21:05.458Z,7.00
2023-05-02T10:33:03.609Z,4.40
2023-05-02T10:36:54.630Z,4.10
2023-05-02T10:40:43.594Z,4.20
2023-05-02T10:44:32.606Z,4.40
2023-05-02T10:48:22.070Z,3.30
2023-05-02T10:52:33.560Z,4.20
2023-05-02T10:56:22.557Z,3.90
2023-05-02T11:00:26.935Z,4.10
2023-05-02T11:04:15.658Z,3.80
2023-05-02T11:08:04.025Z,3.40
2023-05-02T11:12:25.737Z,3.30
2023-05-02T11:16:14.729Z,3.80
2023-05-02T11:19:59.814Z,3.50
2023-05-02T11:23:54.899Z,4.20
2023-05-02T11:27:44.588Z,4.20
2023-05-02T11:31:40.293Z,3.40
2023-05-02T11:35:32.979Z,3.70
2023-05-02T11:39:22.903Z,3.60
2023-05-02T11:43:12.606Z,3.00
2023-05-02T11:47:03.064Z,3.20
2023-05-02T11:50:56.719Z,2.70
2023-05-02T11:54:45.973Z,3.10
2023-05-02T11:58:35.367Z,3.00
2023-05-02T12:02:27.978Z,2.70
2023-05-02T12:06:37.691Z,2.60
2023-05-02T12:10:33.111Z,2.70
2023-05-02T12:14:23.708Z,3.20
2023-05-02T12:18:14.400Z,3.30
2023-05-02T12:22:13.140Z,3.70
2023-05-02T12:25:55.422Z,3.70
2023-05-02T12:29:49.449Z,4.40
2023-05-02T12:33:40.488Z,4.00
2023-05-02T12:37:30.226Z,4.40
2023-05-02T12:41:03.651Z,5.00
2023-05-02T12:44:52.371Z,5.90
2023-05-02T12:48:44.941Z,5.70
2023-05-02T12:52:35.526Z,6.30
2023-05-02T12:56:24.459Z,6.50
2023-05-02T13:00:11.566Z,6.00
2023-05-02T13:04:01.308Z,6.10
2023-05-02T13:07:50.660Z,6.80
2023-05-02T13:10:56.580Z,5.80
2023-05-02T13:14:12.891Z,6.30
2023-05-02T13:17:54.318Z,8.00
2023-05-02T13:21:36.342Z,7.60
2023-05-02T13:25:11.426Z,7.30
2023-05-02T13:29:03.590Z,8.10
2023-05-02T13:32:53.636Z,7.60
2023-05-02T13:36:43.406Z,7.90
2023-05-02T13:40:32.847Z,6.80
2023-05-02T13:44:22.232Z,5.90
2023-05-02T13:48:06.603Z,6.00
2023-05-02T13:51:55.570Z,5.60
2023-05-02T13:55:45.172Z,5.10
2023-05-02T13:59:35.115Z,6.30
2023-05-02T14:03:24.435Z,5.60
2023-05-02T14:07:13.820Z,5.10
2023-05-02T14:11:05.851Z,5.40
2023-05-02T14:14:58.651Z,4.60
2023-05-02T14:18:48.737Z,3.90
2023-05-02T14:22:31.903Z,4.00
2023-05-02T14:26:21.487Z,2.70
2023-05-02T14:29:53.102Z,3.90
2023-05-02T14:33:32.967Z,2.60
2023-05-02T14:37:14.413Z,3.40
2023-05-02T14:40:56.658Z,2.80
2023-05-02T14:44:46.061Z,3.70
2023-05-02T14:48:00.923Z,3.10
2023-05-02T14:51:50.442Z,3.70
2023-05-02T14:55:40.207Z,2.70
2023-05-02T14:59:29.570Z,2.50
2023-05-02T15:03:11.564Z,2.20
2023-05-02T15:06:53.933Z,1.70
2023-05-02T15:10:35.518Z,2.30
2023-05-02T15:14:24.610Z,2.00
2023-05-02T15:17:52.986Z,2.30
2023-05-02T15:21:42.151Z,2.50
2023-05-02T15:25:33.812Z,1.80
2023-05-02T15:29:15.430Z,1.90
2023-05-02T15:32:57.365Z,1.70
2023-05-02T15:36:02.514Z,1.60
2023-05-02T15:39:30.191Z,1.50
2023-05-02T15:43:01.246Z,1.40
2023-05-02T15:46:30.914Z,1.90
2023-05-02T15:50:20.128Z,1.50
2023-05-02T15:54:07.905Z,2.00
2023-05-02T15:57:57.260Z,1.20
2023-05-02T16:01:37.744Z,2.00
2023-05-02T16:04:59.206Z,1.50
2023-05-02T16:08:48.480Z,1.70
2023-05-02T16:12:38.127Z,2.50
2023-05-02T16:16:27.620Z,1.70
2023-05-02T16:20:10.033Z,1.60
2023-05-02T16:23:43.478Z,1.50
2023-05-02T16:27:32.755Z,3.60
2023-05-02T16:31:00.650Z,5.10
2023-05-02T16:34:16.273Z,2.00
2023-05-02T16:38:05.651Z,11.90
2023-05-02T16:41:55.228Z,1.70
2023-05-02T16:45:35.884Z,2.00
2023-05-02T16:49:17.327Z,2.20
2023-05-02T16:52:42.917Z,2.20
2023-05-02T16:55:59.394Z,2.00
2023-05-02T16:59:31.172Z,2.10
2023-05-02T17:03:07.562Z,2.50
2023-05-02T17:06:41.738Z,2.10
2023-05-02T17:10:25.746Z,2.50
2023-05-02T17:13:50.410Z,2.20
2023-05-02T17:17:32.031Z,2.90
2023-05-02T17:21:14.080Z,2.90
2023-05-02T17:24:36.512Z,3.50
2023-05-02T17:27:53.617Z,2.40
2023-05-02T17:31:07.008Z,2.90
2023-05-02T17:34:27.065Z,2.80
2023-05-02T17:38:00.665Z,3.60
2023-05-02T17:41:34.212Z,4.00
2023-05-02T17:45:05.532Z,3.50
2023-05-02T17:48:54.620Z,3.90
2023-05-02T17:52:36.607Z,3.40
2023-05-02T17:55:57.398Z,3.40
2023-05-02T17:59:31.708Z,3.40
2023-05-02T18:03:20.457Z,3.60
2023-05-02T18:07:10.269Z,3.80
2023-05-02T18:10:35.010Z,3.80
2023-05-02T18:14:24.080Z,3.80
2023-05-02T18:18:13.260Z,4.40
2023-05-02T18:22:02.553Z,6.40
2023-05-02T18:25:40.474Z,4.40
2023-05-02T18:28:42.751Z,5.70
2023-05-02T18:32:26.327Z,4.60
2023-05-02T18:35:19.735Z,5.30
2023-05-02T18:38:44.176Z,4.80
2023-05-02T18:42:01.539Z,9.00
2023-05-02T18:45:36.739Z,5.50
2023-05-02T18:48:32.621Z,5.30
2023-05-02T18:51:43.689Z,5.60
2023-05-02T18:55:25.702Z,7.30
2023-05-02T18:58:36.030Z,7.10
2023-05-02T19:02:10.206Z,5.20
2023-05-02T19:06:02.713Z,4.70
2023-05-02T19:09:05.460Z,4.40
2023-05-02T19:12:20.049Z,4.20
2023-05-02T19:15:43.429Z,4.50
2023-05-02T19:19:17.856Z,4.30
2023-05-02T19:22:52.797Z,3.90
2023-05-02T19:26:42.848Z,3.30
2023-05-02T19:30:17.331Z,4.30
2023-05-02T19:33:50.821Z,4.30
2023-05-02T19:37:18.718Z,4.00
2023-05-02T19:40:59.474Z,3.80
2023-05-02T19:43:50.760Z,4.40
2023-05-02T19:47:10.511Z,3.10
2023-05-02T19:50:16.428Z,4.80
2023-05-02T19:53:24.194Z,5.20
2023-05-02T19:57:06.906Z,4.10
2023-05-02T20:00:50.203Z,3.70
2023-05-02T20:04:09.294Z,5.60
2023-05-02T20:07:53.210Z,5.00
2023-05-02T20:11:22.995Z,4.90
2023-05-02T20:14:50.106Z,3.90
2023-05-02T20:18:25.418Z,4.00
2023-05-02T20:21:50.843Z,3.80
2023-05-02T20:25:11.953Z,4.50
2023-05-02T20:28:43.009Z,4.30
2023-05-02T20:32:28.840Z,4.60
2023-05-02T20:35:51.667Z,4.80
2023-05-02T20:39:07.617Z,5.90
2023-05-02T20:42:48.159Z,6.30
2023-05-02T20:46:22.429Z,5.60
2023-05-02T20:50:12.743Z,5.50
2023-05-02T20:54:02.951Z,5.90
2023-05-02T20:57:53.865Z,5.80
2023-05-02T21:01:33.175Z,5.60
2023-05-02T21:05:08.355Z,6.00
2023-05-02T21:08:56.587Z,6.40
2023-05-02T21:12:27.841Z,6.10
2023-05-02T21:16:01.399Z,5.50
2023-05-02T21:19:34.106Z,5.60
2023-05-02T21:23:23.122Z,6.50
2023-05-02T21:26:57.352Z,5.70
2023-05-02T21:30:45.269Z,5.00
2023-05-02T21:33:52.552Z,5.20
2023-05-02T21:37:33.765Z,4.80
2023-05-02T21:41:15.736Z,4.60
2023-05-02T21:44:54.726Z,5.10
2023-05-02T21:48:42.583Z,5.00
2023-05-02T21:52:05.399Z,5.30
2023-05-02T21:55:39.537Z,5.40
2023-05-02T21:58:53.590Z,5.90
2023-05-02T22:02:34.384Z,5.80
2023-05-02T22:06:12.756Z,6.80
2023-05-02T22:09:44.593Z,6.50
2023-05-02T22:13:09.572Z,4.90
2023-05-02T22:16:51.076Z,5.40
2023-05-02T22:20:23.619Z,5.40
2023-05-02T22:23:36.012Z,5.50
2023-05-02T22:26:52.348Z,5.10
2023-05-02T22:30:24.048Z,5.60
2023-05-02T22:33:51.895Z,5.70
2023-05-02T22:37:39.692Z,5.30
2023-05-02T22:40:50.620Z,5.30
2023-05-02T22:44:25.406Z,5.40
2023-05-02T22:47:57.313Z,5.20
2023-05-02T22:51:29.912Z,5.50
2023-05-02T22:55:18.864Z,5.60
2023-05-02T22:58:48.171Z,5.00
2023-05-02T23:02:10.712Z,5.20
2023-05-02T23:05:51.130Z,5.20
2023-05-02T23:09:30.705Z,5.60
2023-05-02T23:12:54.086Z,6.10
2023-05-02T23:16:07.317Z,6.40
2023-05-02T23:19:55.009Z,5.80
2023-05-02T23:23:43.996Z,5.30
2023-05-02T23:27:08.528Z,5.90
2023-05-02T23:30:57.780Z,5.60
2023-05-02T23:34:05.766Z,5.70
2023-05-02T23:37:09.863Z,5.40
2023-05-02T23:40:45.506Z,5.80
2023-05-02T23:44:13.772Z,5.70
2023-05-02T23:48:02.821Z,6.20
2023-05-02T23:51:44.875Z,6.10
2023-05-02T23:55:08.492Z,5.50
2023-05-02T23:58:43.050Z,6.20
